Time;durP1;ratioP1;P1;durP2;ratioP2;P2;SDS_P1;SDS_P2;PMS_P1;PMS_P2;Temp;Humidity;BMP_temperature;BMP_pressure;BME280_temperature;BME280_humidity;BME280_pressure;Samples;Min_cycle;Max_cycle;Signal;HPM_P1;HPM_P2
2023/10/30 00:01:28;;;;;;;;;;;;;;;;;;6323455;28;19915;-83
2023/10/30 00:04:28;;;;;;;;;;;;;;;;;;6338352;28;20401;-83
2023/10/30 00:07:28;;;;;;;;;;;;;;;;;;6301685;28;21063;-83
2023/10/30 00:10:28;;;;;;;;;;;;;;;;;;6324889;28;19919;-82
2023/10/30 00:13:28;;;;;;;;;;;;;;;;;;6307170;28;19908;-81
2023/10/30 00:16:29;;;;;;;;;;;;;;;;;;6324243;28;20592;-82
2023/10/30 00:19:29;;;;;;;;;;;;;;;;;;6316795;28;19920;-82
2023/10/30 00:22:29;;;;;;;;;;;;;;;;;;6320443;28;20325;-82
2023/10/30 00:25:29;;;;;;;;;;;;;;;;;;6327838;28;20388;-82
2023/10/30 00:28:34;;;;;;;;;;;;;;;;;;6321579;28;19966;-82
2023/10/30 00:31:34;;;;;;;;;;;;;;;;;;6324295;28;20398;-81
2023/10/30 00:34:34;;;;;;;;;;;;;;;;;;5968871;28;10000006;-82
2023/10/30 00:37:34;;;;;;;;;;;;;;;;;;6322870;28;20391;-82
2023/10/30 00:40:34;;;;;;;;;;;;;;;;;;6324581;28;20292;-82
2023/10/30 00:43:34;;;;;;;;;;;;;;;;;;6323534;28;20384;-82
2023/10/30 00:46:35;;;;;;;;;;;;;;;;;;6321576;28;19912;-82
2023/10/30 00:49:35;;;;;;;;;;;;;;;;;;6322123;28;20000;-82
2023/10/30 00:52:35;;;;;;;;;;;;;;;;;;6303372;28;20014;-82
2023/10/30 00:55:35;;;;;;;;;;;;;;;;;;6321784;28;19998;-81
2023/10/30 00:58:35;;;;;;;;;;;;;;;;;;6305994;28;19915;-81
2023/10/30 01:01:36;;;;;;;;;;;;;;;;;;6325939;28;20337;-81
2023/10/30 01:04:36;;;;;;;;;;;;;;;;;;6303433;28;19920;-81
2023/10/30 01:07:36;;;;;;;;;;;;;;;;;;6323171;28;20316;-81
2023/10/30 01:10:36;;;;;;;;;;;;;;;;;;6321428;28;20392;-81
2023/10/30 01:13:36;;;;;;;;;;;;;;;;;;6318199;28;19912;-82
2023/10/30 01:16:37;;;;;;;;;;;;;;;;;;6296468;28;19912;-82
2023/10/30 01:19:37;;;;;;;;;;;;;;;;;;6319240;28;20373;-81
2023/10/30 01:22:37;;;;;;;;;;;;;;;;;;6324087;28;19939;-82
2023/10/30 01:25:37;;;;;;;;;;;;;;;;;;6325041;28;19927;-81
2023/10/30 01:28:37;;;;;;;;;;;;;;;;;;6320807;28;19916;-81
2023/10/30 01:31:37;;;;;;;;;;;;;;;;;;6322702;28;19908;-85
2023/10/30 01:34:37;;;;;;;;;;;;;;;;;;6302016;28;19921;-82
2023/10/30 01:37:37;;;;;;;;;;;;;;;;;;6306481;28;19916;-81
2023/10/30 01:40:38;;;;;;;;;;;;;;;;;;6307003;28;19956;-85
2023/10/30 01:43:38;;;;;;;;;;;;;;;;;;6299547;28;19995;-82
2023/10/30 01:46:38;;;;;;;;;;;;;;;;;;6302093;28;19913;-82
2023/10/30 01:49:38;;;;;;;;;;;;;;;;;;6301380;28;19913;-82
2023/10/30 01:52:38;;;;;;;;;;;;;;;;;;6300057;28;19924;-81
2023/10/30 01:55:39;;;;;;;;;;;;;;;;;;6299592;28;19916;-82
2023/10/30 01:58:39;;;;;;;;;;;;;;;;;;6300389;28;19990;-82
2023/10/30 02:01:39;;;;;;;;;;;;;;;;;;6306689;28;20491;-82
2023/10/30 02:04:39;;;;;;;;;;;;;;;;;;6306031;28;19920;-81
2023/10/30 02:07:39;;;;;;;;;;;;;;;;;;6301051;28;19966;-82
2023/10/30 02:10:39;;;;;;;;;;;;;;;;;;6305065;28;19918;-82
2023/10/30 02:13:40;;;;;;;;;;;;;;;;;;6315740;28;19974;-82
2023/10/30 02:16:40;;;;;;;;;;;;;;;;;;6304348;28;20383;-83
2023/10/30 02:19:40;;;;;;;;;;;;;;;;;;6303938;28;19916;-81
2023/10/30 02:22:40;;;;;;;;;;;;;;;;;;6297905;28;19928;-81
2023/10/30 02:25:40;;;;;;;;;;;;;;;;;;6302733;28;20333;-81
2023/10/30 02:28:40;;;;;;;;;;;;;;;;;;6302405;28;20689;-82
2023/10/30 02:31:40;;;;;;;;;;;;;;;;;;6297860;28;19916;-82
2023/10/30 02:34:40;;;;;;;;;;;;;;;;;;6296413;28;19923;-83
2023/10/30 02:37:41;;;;;;;;;;;;;;;;;;6299270;28;19924;-83
2023/10/30 02:40:41;;;;;;;;;;;;;;;;;;6299070;28;19962;-82
2023/10/30 02:43:41;;;;;;;;;;;;;;;;;;6298130;28;19967;-81
2023/10/30 02:46:41;;;;;;;;;;;;;;;;;;6303673;28;20389;-85
2023/10/30 02:49:41;;;;;;;;;;;;;;;;;;6302399;28;20421;-83
2023/10/30 02:52:41;;;;;;;;;;;;;;;;;;6298866;28;19927;-82
2023/10/30 02:55:41;;;;;;;;;;;;;;;;;;6300268;28;19952;-82
2023/10/30 02:58:41;;;;;;;;;;;;;;;;;;6298953;28;20402;-82
2023/10/30 03:01:42;;;;;;;;;;;;;;;;;;6308641;28;20408;-82
2023/10/30 03:04:42;;;;;;;;;;;;;;;;;;6297977;28;19974;-82
2023/10/30 03:07:42;;;;;;;;;;;;;;;;;;6297943;28;19924;-82
2023/10/30 03:10:42;;;;;;;;;;;;;;;;;;6314056;28;19916;-82
2023/10/30 03:13:42;;;;;;;;;;;;;;;;;;6300475;28;19916;-81
2023/10/30 03:16:43;;;;;;;;;;;;;;;;;;6300272;28;20041;-83
2023/10/30 03:19:43;;;;;;;;;;;;;;;;;;6301582;28;20011;-82
2023/10/30 03:22:43;;;;;;;;;;;;;;;;;;6298351;28;20007;-83
2023/10/30 03:25:43;;;;;;;;;;;;;;;;;;6298948;28;19950;-82
2023/10/30 03:28:43;;;;;;;;;;;;;;;;;;6299907;28;19963;-82
2023/10/30 03:31:43;;;;;;;;;;;;;;;;;;6313489;28;19974;-82
2023/10/30 03:34:43;;;;;;;;;;;;;;;;;;6301797;28;19920;-83
2023/10/30 03:37:43;;;;;;;;;;;;;;;;;;6307165;28;19922;-82
2023/10/30 03:40:43;;;;;;;;;;;;;;;;;;6303305;28;19916;-81
2023/10/30 03:43:44;;;;;;;;;;;;;;;;;;6320218;28;20302;-81
2023/10/30 03:46:44;;;;;;;;;;;;;;;;;;6302495;28;19916;-81
2023/10/30 03:49:44;;;;;;;;;;;;;;;;;;6299478;28;20426;-81
2023/10/30 03:52:45;;;;;;;;;;;;;;;;;;6309063;28;19919;-81
2023/10/30 03:55:45;;;;;;;;;;;;;;;;;;6304057;28;19916;-81
2023/10/30 03:58:45;;;;;;;;;;;;;;;;;;6308108;28;19920;-81
2023/10/30 04:01:45;;;;;;;;;;;;;;;;;;6302699;28;19959;-81
2023/10/30 04:04:45;;;;;;;;;;;;;;;;;;6305157;28;19928;-82
2023/10/30 04:07:45;;;;;;;;;;;;;;;;;;6303039;28;20308;-81
2023/10/30 04:10:45;;;;;;;;;;;;;;;;;;6305765;28;19912;-81
2023/10/30 04:13:46;;;;;;;;;;;;;;;;;;6318021;28;19921;-82
2023/10/30 04:16:46;;;;;;;;;;;;;;;;;;6303401;28;19912;-81
2023/10/30 04:19:46;;;;;;;;;;;;;;;;;;6300730;28;20418;-81
2023/10/30 04:22:49;;;;;;;;;;;;;;;;;;6315487;28;19920;-81
2023/10/30 04:25:49;;;;;;;;;;;;;;;;;;6301892;28;19974;-82
2023/10/30 04:28:49;;;;;;;;;;;;;;;;;;6319679;28;19920;-81
2023/10/30 04:31:49;;;;;;;;;;;;;;;;;;6306601;28;19918;-81
2023/10/30 04:34:50;;;;;;;;;;;;;;;;;;6302594;28;19919;-82
2023/10/30 04:37:50;;;;;;;;;;;;;;;;;;6307106;28;20003;-81
2023/10/30 04:40:50;;;;;;;;;;;;;;;;;;6304099;28;20281;-82
2023/10/30 04:43:51;;;;;;;;;;;;;;;;;;6300405;28;20019;-83
2023/10/30 04:46:51;;;;;;;;;;;;;;;;;;6305633;28;19920;-82
2023/10/30 04:49:51;;;;;;;;;;;;;;;;;;6303143;28;20455;-84
2023/10/30 04:52:51;;;;;;;;;;;;;;;;;;6305687;28;19912;-81
2023/10/30 04:55:51;;;;;;;;;;;;;;;;;;6303856;28;19997;-82
2023/10/30 04:58:51;;;;;;;;;;;;;;;;;;6302999;28;20379;-82
2023/10/30 05:01:51;;;;;;;;;;;;;;;;;;6305338;28;19913;-82
2023/10/30 05:04:51;;;;;;;;;;;;;;;;;;6321813;28;19941;-82
2023/10/30 05:07:52;;;;;;;;;;;;;;;;;;6303177;28;20369;-84
2023/10/30 05:10:52;;;;;;;;;;;;;;;;;;6303608;28;19916;-82
2023/10/30 05:13:52;;;;;;;;;;;;;;;;;;6303653;28;20385;-81
2023/10/30 05:16:52;;;;;;;;;;;;;;;;;;6307498;28;20377;-81
2023/10/30 05:19:53;;;;;;;;;;;;;;;;;;6302892;28;19916;-81
2023/10/30 05:22:53;;;;;;;;;;;;;;;;;;6305227;28;19973;-86
2023/10/30 05:25:53;;;;;;;;;;;;;;;;;;6299688;28;19994;-82
2023/10/30 05:28:53;;;;;;;;;;;;;;;;;;6303677;28;19969;-82
2023/10/30 05:31:53;;;;;;;;;;;;;;;;;;6303938;28;19960;-85
2023/10/30 05:34:53;;;;;;;;;;;;;;;;;;6320572;27;20270;-81
2023/10/30 05:37:53;;;;;;;;;;;;;;;;;;6311075;28;19916;-82
2023/10/30 05:40:53;;;;;;;;;;;;;;;;;;6300226;28;19920;-81
2023/10/30 05:43:54;;;;;;;;;;;;;;;;;;6317804;27;20066;-82
2023/10/30 05:46:54;;;;;;;;;;;;;;;;;;6319920;28;19923;-83
2023/10/30 05:49:54;;;;;;;;;;;;;;;;;;6301712;28;19959;-81
2023/10/30 05:52:54;;;;;;;;;;;;;;;;;;6312072;28;19973;-81
2023/10/30 05:55:55;;;;;;;;;;;;;;;;;;6312045;28;19951;-81
2023/10/30 05:58:55;;;;;;;;;;;;;;;;;;6320491;28;19919;-81
2023/10/30 06:01:55;;;;;;;;;;;;;;;;;;6309609;28;19964;-81
2023/10/30 06:04:55;;;;;;;;;;;;;;;;;;6316542;28;19931;-81
2023/10/30 06:07:55;;;;;;;;;;;;;;;;;;6302385;28;19919;-82
2023/10/30 06:10:55;;;;;;;;;;;;;;;;;;6300779;28;19990;-81
2023/10/30 06:13:56;;;;;;;;;;;;;;;;;;6302579;28;19912;-82
2023/10/30 06:16:58;;;;;;;;;;;;;;;;;;6306115;28;20786;-82
2023/10/30 06:19:58;;;;;;;;;;;;;;;;;;6299434;28;19916;-82
2023/10/30 06:22:59;;;;;;;;;;;;;;;;;;6300259;28;20416;-84
2023/10/30 06:26:02;;;;;;;;;;;;;;;;;;6299324;28;20192;-82
2023/10/30 06:29:02;;;;;;;;;;;;;;;;;;6301827;28;19920;-77
2023/10/30 06:32:02;;;;;;;;;;;;;;;;;;6307134;28;19916;-77
2023/10/30 06:35:02;;;;;;;;;;;;;;;;;;6318922;28;19927;-79
2023/10/30 06:38:03;;;;;;;;;;;;;;;;;;6304326;28;19923;-83
2023/10/30 06:41:04;;;;;;;;;;;;;;;;;;6324222;28;19913;-84
2023/10/30 06:44:04;;;;;;;;;;;;;;;;;;6308778;28;19927;-82
2023/10/30 06:47:04;;;;;;;;;;;;;;;;;;6322800;28;20006;-83
2023/10/30 06:50:04;;;;;;;;;;;;;;;;;;6319559;28;19923;-84
2023/10/30 06:53:04;;;;;;;;;;;;;;;;;;6324371;28;19948;-83
2023/10/30 06:56:04;;;;;;;;;;;;;;;;;;6298977;28;19999;-78
2023/10/30 06:59:04;;;;;;;;;;;;;;;;;;6300805;28;19912;-78
2023/10/30 07:02:04;;;;;;;;;;;;;;;;;;6306120;28;19920;-78
2023/10/30 07:05:04;;;;;;;;;;;;;;;;;;6299976;28;20339;-78
2023/10/30 07:08:05;;;;;;;;;;;;;;;;;;6325685;28;19918;-78
2023/10/30 07:11:05;;;;;;;;;;;;;;;;;;6316816;28;19913;-78
2023/10/30 07:14:05;;;;;;;;;;;;;;;;;;6303918;28;20384;-77
2023/10/30 07:17:05;;;;;;;;;;;;;;;;;;6327845;28;19920;-78
2023/10/30 07:20:05;;;;;;;;;;;;;;;;;;6307486;28;19928;-79
2023/10/30 07:23:05;;;;;;;;;;;;;;;;;;6310721;28;20019;-79
2023/10/30 07:26:05;;;;;;;;;;;;;;;;;;6304471;28;19920;-78
2023/10/30 07:29:05;;;;;;;;;;;;;;;;;;6304458;28;19935;-79
2023/10/30 07:32:05;;;;;;;;;;;;;;;;;;6307054;28;19943;-81
2023/10/30 07:35:06;;;;;;;;;;;;;;;;;;6302812;28;19912;-79
2023/10/30 07:38:06;;;;;;;;;;;;;;;;;;6305621;28;20280;-79
2023/10/30 07:41:07;;;;;;;;;;;;;;;;;;6305907;28;20283;-79
2023/10/30 07:44:07;;;;;;;;;;;;;;;;;;6310327;28;19920;-80
2023/10/30 07:47:08;;;;;;;;;;;;;;;;;;6306865;28;19919;-78
2023/10/30 07:50:08;;;;;;;;;;;;;;;;;;6309320;28;19912;-79
2023/10/30 07:53:11;;;;;;;;;;;;;;;;;;6309417;28;19963;-79
2023/10/30 07:56:11;;;;;;;;;;;;;;;;;;6302274;28;19936;-81
2023/10/30 07:59:11;;;;;;;;;;;;;;;;;;6310740;28;19913;-79
2023/10/30 08:02:11;;;;;;;;;;;;;;;;;;6329640;28;19969;-78
2023/10/30 08:05:15;;;;;;;;;;;;;;;;;;6325085;28;20390;-79
2023/10/30 08:08:17;;;;;;;;;;;;;;;;;;6350917;27;19908;-79
2023/10/30 08:11:17;;;;;;;;;;;;;;;;;;6324485;28;19919;-78
2023/10/30 08:14:17;;;;;;;;;;;;;;;;;;6323217;28;19938;-79
2023/10/30 08:17:17;;;;;;;;;;;;;;;;;;6310476;28;19948;-78
2023/10/30 08:20:18;;;;;;;;;;;;;;;;;;6324142;28;19959;-80
2023/10/30 08:23:18;;;;;;;;;;;;;;;;;;6325602;28;19931;-80
2023/10/30 08:26:18;;;;;;;;;;;;;;;;;;6325410;28;19916;-79
2023/10/30 08:29:19;;;;;;;;;;;;;;;;;;6321530;28;20288;-83
2023/10/30 08:32:19;;;;;;;;;;;;;;;;;;6313378;28;19920;-83
2023/10/30 08:35:19;;;;;;;;;;;;;;;;;;6312302;28;19912;-83
2023/10/30 08:38:19;;;;;;;;;;;;;;;;;;6340500;28;19919;-83
2023/10/30 08:41:19;;;;;;;;;;;;;;;;;;6324204;28;19916;-82
2023/10/30 08:44:19;;;;;;;;;;;;;;;;;;6337057;28;19920;-84
2023/10/30 08:47:19;;;;;;;;;;;;;;;;;;6323731;28;19908;-82
2023/10/30 08:50:20;;;;;;;;;;;;;;;;;;6321647;28;19919;-83
2023/10/30 08:53:20;;;;;;;;;;;;;;;;;;6320890;28;20288;-83
2023/10/30 08:56:20;;;;;;;;;;;;;;;;;;6323432;28;20002;-83
2023/10/30 08:59:20;;;;;;;;;;;;;;;;;;6334456;28;19964;-83
2023/10/30 09:02:20;;;;;;;;;;;;;;;;;;6341408;28;19908;-82
2023/10/30 09:05:20;;;;;;;;;;;;;;;;;;6321959;28;20303;-83
2023/10/30 09:08:20;;;;;;;;;;;;;;;;;;6322915;28;19912;-82
2023/10/30 09:11:22;;;;;;;;;;;;;;;;;;6340466;28;19952;-83
2023/10/30 09:14:22;;;;;;;;;;;;;;;;;;6321985;28;19920;-83
2023/10/30 09:17:22;;;;;;;;;;;;;;;;;;6325045;28;19955;-84
2023/10/30 09:20:22;;;;;;;;;;;;;;;;;;6347838;27;20328;-83
2023/10/30 09:23:23;;;;;;;;;;;;;;;;;;6312428;28;20373;-84
2023/10/30 09:26:23;;;;;;;;;;;;;;;;;;6299642;28;19920;-84
2023/10/30 09:29:24;;;;;;;;;;;;;;;;;;6314127;28;19916;-85
2023/10/30 09:32:25;;;;;;;;;;;;;;;;;;6338648;28;19916;-84
2023/10/30 09:35:29;;;;;;;;;;;;;;;;;;6302379;28;20012;-84
2023/10/30 09:38:29;;;;;;;;;;;;;;;;;;6301383;28;19994;-84
2023/10/30 09:41:29;;;;;;;;;;;;;;;;;;6310145;28;19912;-84
2023/10/30 09:44:30;;;;;;;;;;;;;;;;;;6337295;28;19938;-84
2023/10/30 09:47:30;;;;;;;;;;;;;;;;;;6340173;28;19912;-83
2023/10/30 09:50:30;;;;;;;;;;;;;;;;;;6309230;28;20422;-82
2023/10/30 09:53:30;;;;;;;;;;;;;;;;;;6322739;28;19912;-82
2023/10/30 09:56:31;;;;;;;;;;;;;;;;;;6323682;28;19965;-82
2023/10/30 09:59:32;;;;;;;;;;;;;;;;;;6321636;28;19912;-82
2023/10/30 10:02:32;;;;;;;;;;;;;;;;;;6320121;28;19912;-71
2023/10/30 10:05:32;;;;;;;;;;;;;;;;;;6317470;28;19966;-71
2023/10/30 10:08:32;;;;;;;;;;;;;;;;;;6319184;28;19912;-72
2023/10/30 10:11:33;;;;;;;;;;;;;;;;;;6321157;28;19916;-84
2023/10/30 10:14:33;;;;;;;;;;;;;;;;;;6322294;28;19912;-81
2023/10/30 10:17:33;;;;;;;;;;;;;;;;;;6316597;28;19919;-82
2023/10/30 10:20:33;;;;;;;;;;;;;;;;;;6336007;28;20055;-79
2023/10/30 10:23:34;;;;;;;;;;;;;;;;;;6338364;28;19927;-83
2023/10/30 10:26:35;;;;;;;;;;;;;;;;;;6323349;28;20285;-81
2023/10/30 10:29:35;;;;;;;;;;;;;;;;;;6321339;28;20008;-81
2023/10/30 10:32:37;;;;;;;;;;;;;;;;;;6321752;28;19912;-81
2023/10/30 10:35:39;;;;;;;;;;;;;;;;;;6317335;28;19923;-82
2023/10/30 10:38:40;;;;;;;;;;;;;;;;;;6311198;28;19913;-81
2023/10/30 10:41:40;;;;;;;;;;;;;;;;;;6298392;28;20273;-82
2023/10/30 10:44:40;;;;;;;;;;;;;;;;;;6296582;28;20273;-82
2023/10/30 10:47:40;;;;;;;;;;;;;;;;;;6298422;28;20357;-79
2023/10/30 10:50:41;;;;;;;;;;;;;;;;;;6315047;28;19916;-79
2023/10/30 10:53:41;;;;;;;;;;;;;;;;;;6324320;28;19916;-81
2023/10/30 10:56:41;;;;;;;;;;;;;;;;;;6337362;28;19964;-80
2023/10/30 10:59:41;;;;;;;;;;;;;;;;;;6313636;28;19912;-80
2023/10/30 11:02:41;;;;;;;;;;;;;;;;;;6331058;28;19920;-81
2023/10/30 11:05:42;;;;;;;;;;;;;;;;;;6321842;28;19920;-80
2023/10/30 11:08:42;;;;;;;;;;;;;;;;;;6323541;28;20296;-83
2023/10/30 11:11:43;;;;;;;;;;;;;;;;;;6320155;28;19920;-81
2023/10/30 11:14:43;;;;;;;;;;;;;;;;;;6319055;28;20338;-83
2023/10/30 11:17:43;;;;;;;;;;;;;;;;;;6321515;28;19920;-81
2023/10/30 11:20:44;;;;;;;;;;;;;;;;;;6318793;28;20037;-80
2023/10/30 11:23:44;;;;;;;;;;;;;;;;;;6321195;28;20368;-80
2023/10/30 11:26:44;;;;;;;;;;;;;;;;;;6308445;28;20306;-80
2023/10/30 11:29:44;;;;;;;;;;;;;;;;;;6297044;28;19916;-80
2023/10/30 11:32:44;;;;;;;;;;;;;;;;;;6300436;28;20399;-80
2023/10/30 11:35:48;;;;;;;;;;;;;;;;;;6315363;28;19946;-81
2023/10/30 11:38:48;;;;;;;;;;;;;;;;;;6320503;28;19998;-81
2023/10/30 11:41:50;;;;;;;;;;;;;;;;;;6310287;28;19934;-80
2023/10/30 11:44:50;;;;;;;;;;;;;;;;;;6337634;28;19919;-80
2023/10/30 11:47:50;;;;;;;;;;;;;;;;;;6330194;28;19915;-80
2023/10/30 11:50:50;;;;;;;;;;;;;;;;;;6345880;28;19939;-81
2023/10/30 11:53:50;;;;;;;;;;;;;;;;;;6314210;28;20376;-81
2023/10/30 11:56:50;;;;;;;;;;;;;;;;;;6319708;28;20394;-80
2023/10/30 11:59:51;;;;;;;;;;;;;;;;;;6304076;28;19921;-80
2023/10/30 12:02:51;;;;;;;;;;;;;;;;;;6328770;28;19920;-80
2023/10/30 12:05:53;;;;;;;;;;;;;;;;;;6350506;28;19912;-83
2023/10/30 12:08:53;;;;;;;;;;;;;;;;;;6350874;28;20338;-80
2023/10/30 12:11:53;;;;;;;;;;;;;;;;;;6333571;28;19908;-81
2023/10/30 12:14:53;;;;;;;;;;;;;;;;;;6324931;28;19987;-80
2023/10/30 12:17:53;;;;;;;;;;;;;;;;;;6318787;28;19916;-81
2023/10/30 12:20:55;;;;;;;;;;;;;;;;;;6329596;28;19973;-81
2023/10/30 12:23:57;;;;;;;;;;;;;;;;;;6325188;28;19916;-83
2023/10/30 12:26:57;;;;;;;;;;;;;;;;;;6299623;28;19920;-80
2023/10/30 12:29:58;;;;;;;;;;;;;;;;;;6300549;28;19908;-80
2023/10/30 12:32:58;;;;;;;;;;;;;;;;;;6298859;28;20316;-80
2023/10/30 12:35:59;;;;;;;;;;;;;;;;;;6323040;28;19912;-80
2023/10/30 12:38:59;;;;;;;;;;;;;;;;;;6324719;28;19908;-80
2023/10/30 12:41:59;;;;;;;;;;;;;;;;;;6325735;28;19913;-79
2023/10/30 12:44:59;;;;;;;;;;;;;;;;;;6325193;28;19919;-80
2023/10/30 12:47:59;;;;;;;;;;;;;;;;;;6323960;28;19916;-81
2023/10/30 12:51:00;;;;;;;;;;;;;;;;;;6323174;28;20280;-80
2023/10/30 12:54:00;;;;;;;;;;;;;;;;;;6308518;28;19912;-80
2023/10/30 12:57:00;;;;;;;;;;;;;;;;;;6323665;28;19918;-80
2023/10/30 13:00:00;;;;;;;;;;;;;;;;;;6324354;28;20278;-80
2023/10/30 13:03:00;;;;;;;;;;;;;;;;;;6337664;28;19912;-80
2023/10/30 13:06:00;;;;;;;;;;;;;;;;;;6293799;28;19917;-79
2023/10/30 13:09:00;;;;;;;;;;;;;;;;;;6298927;28;19971;-84
2023/10/30 13:12:00;;;;;;;;;;;;;;;;;;6299908;28;20020;-83
2023/10/30 13:15:02;;;;;;;;;;;;;;;;;;6332015;28;19961;-84
2023/10/30 13:18:02;;;;;;;;;;;;;;;;;;6332207;28;19928;-85
2023/10/30 13:21:02;;;;;;;;;;;;;;;;;;6321582;28;19939;-84
2023/10/30 13:24:03;;;;;;;;;;;;;;;;;;6321883;28;19916;-86
2023/10/30 13:27:04;;;;;;;;;;;;;;;;;;6320333;28;19961;-85
2023/10/30 13:30:04;;;;;;;;;;;;;;;;;;6301470;28;19917;-85
2023/10/30 13:33:04;;;;;;;;;;;;;;;;;;6316028;28;19993;-84
2023/10/30 13:36:04;;;;;;;;;;;;;;;;;;6322113;28;19969;-83
2023/10/30 13:39:05;;;;;;;;;;;;;;;;;;6321898;28;19916;-84
2023/10/30 13:42:05;;;;;;;;;;;;;;;;;;6320370;28;19912;-81
2023/10/30 13:45:05;;;;;;;;;;;;;;;;;;6321224;28;19920;-83
2023/10/30 13:48:06;;;;;;;;;;;;;;;;;;6310550;28;19923;-81
2023/10/30 13:51:06;;;;;;;;;;;;;;;;;;6320075;28;19912;-79
2023/10/30 13:54:06;;;;;;;;;;;;;;;;;;6321431;28;19913;-81
2023/10/30 13:57:07;;;;;;;;;;;;;;;;;;6317497;28;19912;-80
2023/10/30 14:00:09;;;;;;;;;;;;;;;;;;6321800;28;19923;-80
2023/10/30 14:03:09;;;;;;;;;;;;;;;;;;6339568;28;19908;-83
2023/10/30 14:06:09;;;;;;;;;;;;;;;;;;6335916;28;19923;-82
2023/10/30 14:09:12;;;;;;;;;;;;;;;;;;6322436;28;19912;-80
2023/10/30 14:12:12;;;;;;;;;;;;;;;;;;6323732;28;20357;-81
2023/10/30 14:15:13;;;;;;;;;;;;;;;;;;6318656;28;19912;-81
2023/10/30 14:18:13;;;;;;;;;;;;;;;;;;6331756;28;20364;-82
2023/10/30 14:21:15;;;;;;;;;;;;;;;;;;6320842;28;19920;-82
2023/10/30 14:24:15;;;;;;;;;;;;;;;;;;6321101;28;19968;-82
2023/10/30 14:27:15;;;;;;;;;;;;;;;;;;6320221;28;19916;-83
2023/10/30 14:30:16;;;;;;;;;;;;;;;;;;6322059;28;19912;-82
2023/10/30 14:33:16;;;;;;;;;;;;;;;;;;6305524;28;19919;-82
2023/10/30 14:36:16;;;;;;;;;;;;;;;;;;6332497;28;20368;-84
2023/10/30 14:39:16;;;;;;;;;;;;;;;;;;6335117;28;19912;-82
2023/10/30 14:42:17;;;;;;;;;;;;;;;;;;6322919;28;19908;-81
2023/10/30 14:45:17;;;;;;;;;;;;;;;;;;6332237;28;19931;-81
2023/10/30 14:48:18;;;;;;;;;;;;;;;;;;6314399;28;19920;-82
2023/10/30 14:51:18;;;;;;;;;;;;;;;;;;6333086;28;19912;-83
2023/10/30 14:54:19;;;;;;;;;;;;;;;;;;6318409;28;20424;-81
2023/10/30 14:57:19;;;;;;;;;;;;;;;;;;6315612;28;20369;-85
2023/10/30 15:00:20;;;;;;;;;;;;;;;;;;6309786;28;19912;-81
2023/10/30 15:03:20;;;;;;;;;;;;;;;;;;6336290;28;19912;-82
2023/10/30 15:06:20;;;;;;;;;;;;;;;;;;6312895;28;20310;-82
2023/10/30 15:09:22;;;;;;;;;;;;;;;;;;6320814;28;19962;-81
2023/10/30 15:12:22;;;;;;;;;;;;;;;;;;6318505;28;19912;-84
2023/10/30 15:15:22;;;;;;;;;;;;;;;;;;6319106;28;19919;-83
2023/10/30 15:18:22;;;;;;;;;;;;;;;;;;6310417;28;19916;-83
2023/10/30 15:21:22;;;;;;;;;;;;;;;;;;6317268;28;19931;-82
2023/10/30 15:24:22;;;;;;;;;;;;;;;;;;6316708;28;19969;-86
2023/10/30 15:27:25;;;;;;;;;;;;;;;;;;6319990;28;19959;-82
2023/10/30 15:30:25;;;;;;;;;;;;;;;;;;6318326;28;19918;-81
2023/10/30 15:33:30;;;;;;;;;;;;;;;;;;6317972;28;19912;-84
2023/10/30 15:36:31;;;;;;;;;;;;;;;;;;6322594;28;19912;-85
2023/10/30 15:39:31;;;;;;;;;;;;;;;;;;6315287;28;19931;-82
2023/10/30 15:42:31;;;;;;;;;;;;;;;;;;6324196;28;19912;-83
2023/10/30 15:45:31;;;;;;;;;;;;;;;;;;6317915;28;19916;-81
2023/10/30 15:48:31;;;;;;;;;;;;;;;;;;6310026;28;19924;-81
2023/10/30 15:51:31;;;;;;;;;;;;;;;;;;6322763;28;19912;-82
2023/10/30 15:54:31;;;;;;;;;;;;;;;;;;6324544;28;19912;-81
2023/10/30 15:57:32;;;;;;;;;;;;;;;;;;6340010;28;19912;-84
2023/10/30 16:00:32;;;;;;;;;;;;;;;;;;6311458;28;19913;-83
2023/10/30 16:03:33;;;;;;;;;;;;;;;;;;6301131;28;19919;-81
2023/10/30 16:06:33;;;;;;;;;;;;;;;;;;6325694;28;20380;-80
2023/10/30 16:09:33;;;;;;;;;;;;;;;;;;6323836;28;20003;-80
2023/10/30 16:12:33;;;;;;;;;;;;;;;;;;6313775;28;20003;-88
2023/10/30 16:15:33;;;;;;;;;;;;;;;;;;6322205;28;19992;-90
2023/10/30 16:18:33;;;;;;;;;;;;;;;;;;6320230;28;20383;-92
2023/10/30 16:21:34;;;;;;;;;;;;;;;;;;6337667;28;20372;-87
2023/10/30 16:24:34;;;;;;;;;;;;;;;;;;6325783;28;19916;-94
2023/10/30 16:27:34;;;;;;;;;;;;;;;;;;6344793;27;20249;-94
2023/10/30 16:30:34;;;;;;;;;;;;;;;;;;6318143;28;20273;-87
2023/10/30 16:33:34;;;;;;;;;;;;;;;;;;6300627;28;19914;-87
2023/10/30 16:36:34;;;;;;;;;;;;;;;;;;6324055;28;19923;-87
2023/10/30 16:39:34;;;;;;;;;;;;;;;;;;6302221;28;19927;-84
2023/10/30 16:42:35;;;;;;;;;;;;;;;;;;6326600;28;20001;-84
2023/10/30 16:45:35;;;;;;;;;;;;;;;;;;6300302;28;19999;-84
2023/10/30 16:48:35;;;;;;;;;;;;;;;;;;6314364;28;19920;-87
2023/10/30 16:51:35;;;;;;;;;;;;;;;;;;6321075;28;19919;-85
2023/10/30 16:54:35;;;;;;;;;;;;;;;;;;6308856;28;19916;-86
2023/10/30 16:57:35;;;;;;;;;;;;;;;;;;6303517;28;19912;-88
2023/10/30 17:00:35;;;;;;;;;;;;;;;;;;6322131;28;19966;-89
2023/10/30 17:03:36;;;;;;;;;;;;;;;;;;6307925;28;19939;-87
2023/10/30 17:06:36;;;;;;;;;;;;;;;;;;6324010;28;20356;-87
2023/10/30 17:09:36;;;;;;;;;;;;;;;;;;6324598;28;19912;-88
2023/10/30 17:12:36;;;;;;;;;;;;;;;;;;6315925;28;19912;-87
2023/10/30 17:15:36;;;;;;;;;;;;;;;;;;6330260;28;19916;-91
2023/10/30 17:18:36;;;;;;;;;;;;;;;;;;6303104;28;19913;-88
2023/10/30 17:21:36;;;;;;;;;;;;;;;;;;6317797;28;19920;-92
2023/10/30 17:24:37;;;;;;;;;;;;;;;;;;6334622;28;19916;-86
2023/10/30 17:27:37;;;;;;;;;;;;;;;;;;6314884;28;20277;-90
2023/10/30 17:30:37;;;;;;;;;;;;;;;;;;6325086;28;20364;-90
2023/10/30 17:33:37;;;;;;;;;;;;;;;;;;6320578;28;19929;-91
2023/10/30 17:36:37;;;;;;;;;;;;;;;;;;6318858;28;19912;-89
2023/10/30 17:39:37;;;;;;;;;;;;;;;;;;6311904;28;19915;-85
2023/10/30 17:42:38;;;;;;;;;;;;;;;;;;6299194;28;19912;-82
2023/10/30 17:45:38;;;;;;;;;;;;;;;;;;6313942;28;19959;-84
2023/10/30 17:48:38;;;;;;;;;;;;;;;;;;6302146;28;19923;-85
2023/10/30 17:51:38;;;;;;;;;;;;;;;;;;6338351;28;20321;-84
2023/10/30 17:54:38;;;;;;;;;;;;;;;;;;6307610;28;19930;-89
2023/10/30 17:57:38;;;;;;;;;;;;;;;;;;6322291;28;19919;-89
2023/10/30 18:00:38;;;;;;;;;;;;;;;;;;6299777;28;19960;-87
2023/10/30 18:03:38;;;;;;;;;;;;;;;;;;6295457;28;20350;-86
2023/10/30 18:06:39;;;;;;;;;;;;;;;;;;6291868;28;19921;-85
2023/10/30 18:09:39;;;;;;;;;;;;;;;;;;6309978;28;20300;-84
2023/10/30 18:12:39;;;;;;;;;;;;;;;;;;6319343;28;19959;-85
2023/10/30 18:15:39;;;;;;;;;;;;;;;;;;6322190;28;19963;-89
2023/10/30 18:18:39;;;;;;;;;;;;;;;;;;6320916;28;20011;-91
2023/10/30 18:21:42;;;;;;;;;;;;;;;;;;6348480;27;20296;-93
2023/10/30 18:24:42;;;;;;;;;;;;;;;;;;6300719;28;19927;-86
2023/10/30 18:27:42;;;;;;;;;;;;;;;;;;6322331;28;20376;-88
2023/10/30 18:30:42;;;;;;;;;;;;;;;;;;6319685;28;19919;-86
2023/10/30 18:33:43;;;;;;;;;;;;;;;;;;6299364;28;20333;-86
2023/10/30 18:36:43;;;;;;;;;;;;;;;;;;6313929;28;19912;-90
2023/10/30 18:39:43;;;;;;;;;;;;;;;;;;6297786;28;20336;-90
2023/10/30 18:42:43;;;;;;;;;;;;;;;;;;6314673;28;20034;-88
2023/10/30 18:45:43;;;;;;;;;;;;;;;;;;6302292;28;20003;-92
2023/10/30 18:48:44;;;;;;;;;;;;;;;;;;6318299;28;20411;-89
2023/10/30 18:51:45;;;;;;;;;;;;;;;;;;6301090;28;19916;-91
2023/10/30 18:54:45;;;;;;;;;;;;;;;;;;6320788;28;19912;-92
2023/10/30 18:57:47;;;;;;;;;;;;;;;;;;6334387;28;19916;-84
2023/10/30 19:00:47;;;;;;;;;;;;;;;;;;6343775;28;19935;-87
2023/10/30 19:03:48;;;;;;;;;;;;;;;;;;6322180;28;20353;-84
2023/10/30 19:06:48;;;;;;;;;;;;;;;;;;6319798;28;21519;-84
2023/10/30 19:09:48;;;;;;;;;;;;;;;;;;6334940;28;19916;-84
2023/10/30 19:12:49;;;;;;;;;;;;;;;;;;6338743;27;19909;-83
2023/10/30 19:15:49;;;;;;;;;;;;;;;;;;6341871;27;19912;-83
2023/10/30 19:18:49;;;;;;;;;;;;;;;;;;6323951;28;19916;-84
2023/10/30 19:21:49;;;;;;;;;;;;;;;;;;6322786;27;19967;-84
2023/10/30 19:24:49;;;;;;;;;;;;;;;;;;6315768;28;19982;-83
2023/10/30 19:27:49;;;;;;;;;;;;;;;;;;6315659;28;19924;-84
2023/10/30 19:30:49;;;;;;;;;;;;;;;;;;6320266;28;19912;-84
2023/10/30 19:33:50;;;;;;;;;;;;;;;;;;6309498;28;20282;-84
2023/10/30 19:36:50;;;;;;;;;;;;;;;;;;6332608;27;19912;-84
2023/10/30 19:39:51;;;;;;;;;;;;;;;;;;6319822;28;20383;-83
2023/10/30 19:42:52;;;;;;;;;;;;;;;;;;6303012;28;19935;-84
2023/10/30 19:45:53;;;;;;;;;;;;;;;;;;6301216;28;19916;-84
2023/10/30 19:48:53;;;;;;;;;;;;;;;;;;6303927;28;20354;-85
2023/10/30 19:51:53;;;;;;;;;;;;;;;;;;6305140;28;19908;-84
2023/10/30 19:54:53;;;;;;;;;;;;;;;;;;6311141;28;19909;-84
2023/10/30 19:57:53;;;;;;;;;;;;;;;;;;6304891;28;19908;-84
2023/10/30 20:00:53;;;;;;;;;;;;;;;;;;6304476;28;19913;-84
2023/10/30 20:03:54;;;;;;;;;;;;;;;;;;6321970;28;19915;-84
2023/10/30 20:06:55;;;;;;;;;;;;;;;;;;6337261;27;19920;-84
2023/10/30 20:09:55;;;;;;;;;;;;;;;;;;6311597;28;19961;-84
2023/10/30 20:12:55;;;;;;;;;;;;;;;;;;6322342;28;19912;-84
2023/10/30 20:15:56;;;;;;;;;;;;;;;;;;6318002;28;19916;-84
2023/10/30 20:18:56;;;;;;;;;;;;;;;;;;6320381;28;20032;-84
2023/10/30 20:21:56;;;;;;;;;;;;;;;;;;6312467;28;19946;-84
2023/10/30 20:24:56;;;;;;;;;;;;;;;;;;6265889;28;20000;-84
2023/10/30 20:27:56;;;;;;;;;;;;;;;;;;5904611;28;9999879;-84
2023/10/30 20:30:56;;;;;;;;;;;;;;;;;;6267407;28;19955;-84